createdAt,value
2019-05-17T00:00:49.653Z,5.92
2019-05-17T00:03:17.064Z,6.37
2019-05-17T00:05:43.455Z,6.15
2019-05-17T00:08:09.748Z,6.25
2019-05-17T00:10:37.555Z,7.47
2019-05-17T00:13:04.119Z,6.25
2019-05-17T00:15:30.654Z,6.40
2019-05-17T00:17:57.148Z,6.20
2019-05-17T00:20:23.492Z,6.30
2019-05-17T00:22:49.848Z,7.05
2019-05-17T00:25:16.852Z,6.85
2019-05-17T00:27:43.599Z,7.10
2019-05-17T00:30:10.457Z,6.28
2019-05-17T00:32:37.045Z,7.22
2019-05-17T00:35:07.035Z,6.70
2019-05-17T00:37:33.026Z,6.42
2019-05-17T00:39:59.295Z,7.45
2019-05-17T00:42:26.450Z,8.10
2019-05-17T00:44:52.938Z,6.75
2019-05-17T00:47:19.334Z,7.37
2019-05-17T00:49:46.486Z,8.23
2019-05-17T00:52:12.851Z,7.40
2019-05-17T00:54:39.115Z,7.60
2019-05-17T00:57:07.501Z,6.95
2019-05-17T00:59:33.567Z,7.80
2019-05-17T01:01:59.795Z,9.58
2019-05-17T01:04:27.575Z,7.97
2019-05-17T01:06:56.291Z,8.05
2019-05-17T01:09:22.640Z,7.72
2019-05-17T01:11:48.985Z,7.47
2019-05-17T01:14:17.328Z,9.08
2019-05-17T01:16:43.555Z,7.25
2019-05-17T01:19:09.813Z,7.28
2019-05-17T01:21:36.721Z,6.75
2019-05-17T01:24:03.213Z,8.10
2019-05-17T01:26:29.603Z,8.18
2019-05-17T01:28:57.337Z,7.40
2019-05-17T01:31:23.680Z,7.30
2019-05-17T01:33:50.019Z,6.33
2019-05-17T01:36:17.385Z,8.15
2019-05-17T01:38:43.712Z,7.30
2019-05-17T01:41:10.119Z,8.08
2019-05-17T01:43:36.749Z,6.40
2019-05-17T01:46:03.345Z,7.05
2019-05-17T01:48:29.587Z,6.90
2019-05-17T01:50:56.804Z,6.90
2019-05-17T01:53:23.198Z,6.70
2019-05-17T01:55:49.537Z,6.47
2019-05-17T01:58:16.369Z,5.25
2019-05-17T02:00:42.897Z,5.78
2019-05-17T02:03:09.286Z,6.17
2019-05-17T02:05:37.168Z,6.12
2019-05-17T02:08:06.414Z,6.90
2019-05-17T02:10:32.073Z,6.35
2019-05-17T02:12:58.413Z,6.17
2019-05-17T02:15:26.775Z,5.62
2019-05-17T02:17:52.936Z,6.00
2019-05-17T02:20:19.739Z,6.47
2019-05-17T02:22:47.368Z,6.50
2019-05-17T02:25:16.553Z,6.47
2019-05-17T02:27:44.705Z,5.95
2019-05-17T02:30:14.183Z,5.97
2019-05-17T02:32:43.079Z,6.85
2019-05-17T02:35:09.515Z,6.22
2019-05-17T02:37:35.769Z,6.42
2019-05-17T02:40:08.344Z,6.00
2019-05-17T02:42:35.054Z,5.75
2019-05-17T02:45:02.987Z,5.67
2019-05-17T02:47:29.827Z,6.28
2019-05-17T02:49:56.175Z,7.30
2019-05-17T02:52:23.121Z,5.55
2019-05-17T02:54:52.455Z,5.55
2019-05-17T02:57:17.697Z,7.33
2019-05-17T02:59:44.096Z,5.70
2019-05-17T03:02:12.611Z,7.17
2019-05-17T03:04:38.741Z,7.08
2019-05-17T03:07:05.088Z,6.55
2019-05-17T03:09:33.598Z,6.50
2019-05-17T03:12:02.969Z,7.08
2019-05-17T03:14:27.579Z,8.23
2019-05-17T03:16:53.958Z,6.97
2019-05-17T03:19:23.348Z,7.05
2019-05-17T03:21:48.268Z,9.03
2019-05-17T03:24:14.582Z,7.75
2019-05-17T03:26:43.040Z,7.33
2019-05-17T03:29:09.124Z,7.97
2019-05-17T03:31:42.666Z,8.13
2019-05-17T03:34:06.565Z,8.45
2019-05-17T03:36:36.219Z,8.68
2019-05-17T03:39:02.869Z,8.48
2019-05-17T03:41:29.394Z,9.45
2019-05-17T03:43:56.219Z,9.70
2019-05-17T03:46:23.420Z,8.13
2019-05-17T03:48:53.071Z,9.08
2019-05-17T03:51:18.273Z,9.10
2019-05-17T03:53:44.620Z,8.20
2019-05-17T03:56:13.221Z,8.45
2019-05-17T03:58:38.916Z,8.83
2019-05-17T04:01:05.166Z,10.72
2019-05-17T04:03:35.381Z,10.53
2019-05-17T04:05:59.651Z,9.58
2019-05-17T04:08:26.137Z,9.65
2019-05-17T04:10:53.138Z,9.30
2019-05-17T04:13:19.727Z,9.35
2019-05-17T04:15:46.104Z,9.83
2019-05-17T04:18:13.207Z,10.50
2019-05-17T04:20:43.055Z,10.95
2019-05-17T04:23:07.852Z,10.40
2019-05-17T04:25:34.146Z,11.12
2019-05-17T04:28:02.792Z,11.93
2019-05-17T04:30:28.573Z,11.05
2019-05-17T04:32:54.945Z,11.12
2019-05-17T04:35:23.343Z,11.35
2019-05-17T04:37:52.799Z,11.10
2019-05-17T04:40:17.548Z,10.32
2019-05-17T04:42:44.488Z,10.75
2019-05-17T04:45:12.670Z,13.55
2019-05-17T04:47:39.372Z,10.48
2019-05-17T04:50:06.226Z,11.10
2019-05-17T04:52:33.552Z,12.68
2019-05-17T04:55:03.657Z,11.22
2019-05-17T04:57:28.425Z,12.30
2019-05-17T04:59:54.643Z,10.95
2019-05-17T05:02:23.494Z,11.70
2019-05-17T05:04:49.106Z,10.93
2019-05-17T05:07:15.471Z,13.22
2019-05-17T05:09:43.066Z,12.03
2019-05-17T05:12:12.251Z,11.83
2019-05-17T05:14:37.805Z,11.97
2019-05-17T05:17:04.116Z,11.97
2019-05-17T05:19:32.715Z,13.75
2019-05-17T05:21:58.574Z,12.13
2019-05-17T05:24:24.790Z,12.33
2019-05-17T05:26:51.826Z,11.35
2019-05-17T05:29:18.382Z,12.30
2019-05-17T05:31:44.711Z,10.95
2019-05-17T05:34:12.331Z,11.88
2019-05-17T05:36:38.726Z,12.03
2019-05-17T05:39:06.022Z,10.50
2019-05-17T05:41:32.506Z,10.95
2019-05-17T05:43:58.777Z,10.68
2019-05-17T05:46:25.266Z,11.68
2019-05-17T05:48:52.217Z,11.30
2019-05-17T05:51:18.648Z,11.28
2019-05-17T05:53:45.170Z,12.03
2019-05-17T05:56:13.373Z,12.05
2019-05-17T05:58:39.694Z,12.70
2019-05-17T06:01:06.159Z,11.80
2019-05-17T06:03:32.428Z,12.10
2019-05-17T06:06:01.845Z,13.20
2019-05-17T06:08:28.617Z,13.43
2019-05-17T06:10:54.859Z,10.85
2019-05-17T06:13:21.819Z,11.78
2019-05-17T06:15:56.614Z,10.50
2019-05-17T06:18:23.063Z,9.85
2019-05-17T06:20:49.436Z,10.08
2019-05-17T06:23:15.673Z,9.90
2019-05-17T06:25:43.434Z,9.48
2019-05-17T06:28:11.446Z,8.90
2019-05-17T06:30:37.956Z,10.28
2019-05-17T06:33:04.502Z,9.80
2019-05-17T06:35:32.551Z,10.13
2019-05-17T06:37:58.998Z,10.43
2019-05-17T06:40:25.490Z,10.50
2019-05-17T06:42:52.520Z,10.75
2019-05-17T06:45:19.063Z,10.90
2019-05-17T06:47:45.304Z,10.28
2019-05-17T06:50:14.490Z,9.95
2019-05-17T06:52:43.129Z,9.95
2019-05-17T06:55:08.856Z,10.38
2019-05-17T06:57:35.104Z,9.90
2019-05-17T07:00:03.165Z,10.20
2019-05-17T07:02:30.853Z,9.98
2019-05-17T07:05:01.400Z,10.63
2019-05-17T07:07:30.152Z,10.20
2019-05-17T07:10:00.255Z,10.30
2019-05-17T07:12:26.673Z,10.98
2019-05-17T07:14:54.250Z,10.70
2019-05-17T07:17:20.815Z,10.50
2019-05-17T07:19:47.332Z,10.53
2019-05-17T07:22:13.818Z,10.32
2019-05-17T07:24:40.303Z,10.38
2019-05-17T07:27:06.853Z,9.38
2019-05-17T07:29:33.164Z,9.55
2019-05-17T07:32:00.336Z,9.83
2019-05-17T07:34:26.873Z,10.20
2019-05-17T07:36:53.127Z,10.48
2019-05-17T07:39:20.452Z,10.38
2019-05-17T07:41:49.317Z,11.25
2019-05-17T07:44:15.521Z,10.40
2019-05-17T07:46:42.000Z,11.08
2019-05-17T07:49:10.626Z,10.80
2019-05-17T07:51:39.441Z,9.50
2019-05-17T07:54:05.292Z,9.60
2019-05-17T07:56:31.737Z,10.10
2019-05-17T07:59:00.039Z,10.32
2019-05-17T08:01:26.268Z,9.73
2019-05-17T08:03:52.561Z,9.93
2019-05-17T08:06:19.911Z,10.40
2019-05-17T08:08:46.470Z,10.00
2019-05-17T08:11:12.864Z,9.78
2019-05-17T08:13:39.930Z,10.40
2019-05-17T08:16:06.380Z,10.03
2019-05-17T08:18:34.731Z,10.35
2019-05-17T08:21:01.016Z,10.30
2019-05-17T08:23:30.199Z,9.83
2019-05-17T08:25:56.400Z,10.60
2019-05-17T08:28:22.856Z,10.28
2019-05-17T08:30:50.188Z,10.75
2019-05-17T08:33:19.349Z,10.78
2019-05-17T08:35:45.292Z,10.40
2019-05-17T08:38:12.009Z,9.98
2019-05-17T08:40:40.398Z,9.88
2019-05-17T08:43:06.334Z,10.15
2019-05-17T08:45:32.568Z,9.70
2019-05-17T08:48:00.318Z,10.30
2019-05-17T08:50:26.665Z,9.95
2019-05-17T08:52:52.918Z,10.38
2019-05-17T08:55:20.439Z,9.85
2019-05-17T08:57:49.868Z,9.90
2019-05-17T09:00:15.564Z,10.72
2019-05-17T09:02:42.091Z,9.85
2019-05-17T09:05:09.850Z,10.43
2019-05-17T09:07:36.449Z,10.38
2019-05-17T09:10:05.165Z,10.25
2019-05-17T09:12:31.399Z,11.00
2019-05-17T09:15:00.237Z,9.88
2019-05-17T09:17:26.117Z,11.18
2019-05-17T09:19:55.067Z,10.08
2019-05-17T09:22:25.266Z,11.70
2019-05-17T09:24:54.693Z,10.72
2019-05-17T09:27:21.163Z,10.60
2019-05-17T09:29:49.559Z,10.68
2019-05-17T09:32:15.630Z,11.97
2019-05-17T09:34:41.950Z,11.95
2019-05-17T09:37:09.847Z,11.25
2019-05-17T09:39:36.664Z,12.50
2019-05-17T09:42:03.316Z,13.68
2019-05-17T09:44:29.956Z,12.78
2019-05-17T09:46:56.384Z,13.68
2019-05-17T09:49:22.975Z,12.82
2019-05-17T09:51:49.675Z,12.93
2019-05-17T09:54:16.241Z,12.75
2019-05-17T09:56:42.495Z,11.05
2019-05-17T09:59:09.921Z,10.53
2019-05-17T10:01:36.526Z,12.10
2019-05-17T10:04:03.056Z,11.28
2019-05-17T10:06:29.498Z,10.18
2019-05-17T10:08:56.233Z,11.22
2019-05-17T10:11:22.519Z,10.95
2019-05-17T10:13:49.894Z,10.98
2019-05-17T10:16:16.441Z,10.70
2019-05-17T10:18:42.846Z,10.70
2019-05-17T10:21:10.468Z,10.95
2019-05-17T10:23:37.810Z,11.33
2019-05-17T10:26:05.959Z,10.82
2019-05-17T10:28:32.501Z,11.08
2019-05-17T10:31:02.237Z,10.63
2019-05-17T10:33:29.342Z,11.15
2019-05-17T10:35:55.494Z,10.15
2019-05-17T10:38:21.934Z,10.25
2019-05-17T10:40:50.078Z,9.50
2019-05-17T10:43:16.519Z,9.48
2019-05-17T10:45:43.105Z,9.95
2019-05-17T10:48:10.228Z,9.38
2019-05-17T10:50:36.949Z,9.35
2019-05-17T10:53:03.322Z,8.93
2019-05-17T10:55:30.238Z,9.05
2019-05-17T10:57:57.097Z,10.58
2019-05-17T11:00:24.272Z,9.60
2019-05-17T11:02:50.626Z,10.00
2019-05-17T11:05:19.928Z,11.73
2019-05-17T11:07:45.618Z,9.65
2019-05-17T11:10:12.599Z,8.55
2019-05-17T11:12:39.548Z,8.38
2019-05-17T11:15:11.587Z,9.13
2019-05-17T11:17:34.749Z,8.95
2019-05-17T11:20:01.390Z,8.45
2019-05-17T11:22:28.054Z,9.05
2019-05-17T11:24:54.385Z,9.33
2019-05-17T11:27:20.628Z,8.83
2019-05-17T11:29:46.892Z,9.60
2019-05-17T11:32:13.248Z,7.87
2019-05-17T11:34:39.513Z,8.50
2019-05-17T11:37:05.852Z,8.85
2019-05-17T11:39:32.146Z,8.13
2019-05-17T11:41:58.375Z,9.03
2019-05-17T11:44:24.581Z,8.60
2019-05-17T11:46:50.836Z,8.38
2019-05-17T11:49:17.276Z,8.45
2019-05-17T11:51:43.834Z,7.95
2019-05-17T11:54:10.159Z,8.10
2019-05-17T11:56:36.547Z,7.83
2019-05-17T11:59:03.323Z,7.87
2019-05-17T12:01:29.655Z,7.87
2019-05-17T12:03:56.040Z,8.05
2019-05-17T12:06:22.521Z,7.12
2019-05-17T12:08:49.128Z,7.15
2019-05-17T12:11:35.786Z,7.17
2019-05-17T12:14:02.295Z,6.97
2019-05-17T12:16:28.619Z,7.05
2019-05-17T12:18:54.916Z,6.60
2019-05-17T12:21:21.242Z,6.45
2019-05-17T12:23:47.609Z,6.60
2019-05-17T12:26:13.980Z,7.10
2019-05-17T12:28:40.483Z,5.95
2019-05-17T12:31:06.932Z,6.83
2019-05-17T12:33:33.191Z,6.50
2019-05-17T12:35:59.545Z,7.03
2019-05-17T12:38:25.837Z,6.53
2019-05-17T12:40:52.284Z,6.25
2019-05-17T12:43:18.726Z,6.17
2019-05-17T12:45:59.508Z,6.80
2019-05-17T12:48:13.216Z,6.30
2019-05-17T12:50:39.593Z,6.22
2019-05-17T12:53:06.037Z,6.30
2019-05-17T12:55:32.534Z,5.90
2019-05-17T12:57:58.833Z,6.17
2019-05-17T13:00:25.317Z,6.12
2019-05-17T13:02:51.620Z,6.22
2019-05-17T13:05:17.841Z,6.10
2019-05-17T13:07:44.212Z,6.47
2019-05-17T13:10:10.805Z,6.08
2019-05-17T13:12:37.375Z,6.37
2019-05-17T13:15:05.149Z,6.58
2019-05-17T13:17:31.536Z,6.78
2019-05-17T13:19:57.790Z,7.30
2019-05-17T13:22:24.223Z,6.72
2019-05-17T13:24:50.545Z,6.33
2019-05-17T13:27:16.979Z,5.95
2019-05-17T13:29:43.590Z,5.40
2019-05-17T13:32:10.183Z,5.72
2019-05-17T13:34:36.501Z,5.15
2019-05-17T13:37:02.959Z,6.10
2019-05-17T13:39:29.361Z,6.80
2019-05-17T13:41:55.750Z,6.72
2019-05-17T13:44:22.051Z,7.00
2019-05-17T13:46:48.483Z,6.58
2019-05-17T13:49:14.764Z,6.33
2019-05-17T13:51:41.013Z,6.33
2019-05-17T13:54:07.533Z,7.60
2019-05-17T13:56:34.034Z,6.75
2019-05-17T13:59:00.412Z,6.55
2019-05-17T14:01:26.653Z,7.17
2019-05-17T14:03:53.037Z,6.28
2019-05-17T14:06:19.596Z,6.58
2019-05-17T14:08:46.250Z,6.37
2019-05-17T14:11:12.627Z,7.00
2019-05-17T14:13:38.888Z,7.80
2019-05-17T14:16:05.394Z,7.75
2019-05-17T14:18:31.669Z,6.42
2019-05-17T14:20:58.068Z,7.78
2019-05-17T14:23:24.452Z,7.45
2019-05-17T14:25:50.730Z,7.75
2019-05-17T14:28:17.592Z,7.25
2019-05-17T14:30:44.129Z,6.97
2019-05-17T14:33:10.636Z,7.08
2019-05-17T14:35:36.978Z,7.47
2019-05-17T14:38:03.375Z,7.10
2019-05-17T14:41:03.961Z,8.00
2019-05-17T14:42:58.156Z,7.10
2019-05-17T14:45:24.620Z,7.58
2019-05-17T14:48:10.711Z,6.70
2019-05-17T14:50:37.222Z,8.08
2019-05-17T14:53:03.922Z,7.05
2019-05-17T14:55:30.175Z,7.97
2019-05-17T14:57:56.760Z,8.20
2019-05-17T15:00:23.259Z,7.92
2019-05-17T15:02:49.691Z,7.30
2019-05-17T15:05:18.109Z,8.48
2019-05-17T15:07:44.609Z,7.67
2019-05-17T15:10:14.068Z,7.40
2019-05-17T15:12:40.433Z,8.88
2019-05-17T15:15:07.179Z,7.75
2019-05-17T15:17:35.225Z,7.72
2019-05-17T15:20:02.667Z,7.78
2019-05-17T15:22:29.024Z,7.78
2019-05-17T15:24:55.282Z,8.63
2019-05-17T15:27:21.560Z,7.95
2019-05-17T15:29:48.017Z,7.53
2019-05-17T15:32:14.395Z,7.47
2019-05-17T15:34:40.923Z,8.20
2019-05-17T15:37:07.335Z,7.72
2019-05-17T15:39:33.683Z,6.95
2019-05-17T15:42:00.247Z,8.13
2019-05-17T15:44:27.148Z,8.20
2019-05-17T15:46:53.807Z,8.45
2019-05-17T15:49:20.073Z,7.72
2019-05-17T15:51:46.396Z,7.97
2019-05-17T15:54:12.724Z,8.40
2019-05-17T15:56:39.101Z,7.83
2019-05-17T15:59:05.442Z,7.50
2019-05-17T16:01:32.670Z,5.80
2019-05-17T16:03:59.027Z,8.03
2019-05-17T16:06:25.772Z,7.53
2019-05-17T16:08:52.287Z,8.00
2019-05-17T16:11:18.904Z,7.45
2019-05-17T16:13:45.248Z,7.70
2019-05-17T16:16:11.821Z,7.90
2019-05-17T16:18:38.302Z,7.28
2019-05-17T16:21:04.969Z,8.03
2019-05-17T16:23:31.660Z,7.45
2019-05-17T16:25:58.152Z,7.12
2019-05-17T16:28:24.441Z,7.85
2019-05-17T16:30:50.770Z,8.18
2019-05-17T16:33:17.182Z,7.90
2019-05-17T16:35:43.519Z,7.78
2019-05-17T16:38:09.909Z,8.53
2019-05-17T16:40:36.348Z,8.78
2019-05-17T16:43:17.163Z,8.13
2019-05-17T16:45:31.059Z,8.05
2019-05-17T16:47:57.495Z,7.97
2019-05-17T16:50:24.141Z,7.80
2019-05-17T16:53:04.964Z,8.75
2019-05-17T16:55:19.968Z,8.33
2019-05-17T16:57:46.367Z,8.23
2019-05-17T17:00:39.847Z,8.30
2019-05-17T17:03:06.524Z,8.15
2019-05-17T17:05:33.056Z,7.67
2019-05-17T17:07:59.636Z,8.63
2019-05-17T17:10:26.071Z,9.08
2019-05-17T17:12:52.424Z,8.05
2019-05-17T17:15:18.923Z,8.85
2019-05-17T17:17:45.246Z,8.30
2019-05-17T17:20:11.817Z,8.13
2019-05-17T17:22:38.085Z,8.25
2019-05-17T17:25:06.379Z,8.95
2019-05-17T17:27:32.944Z,8.03
2019-05-17T17:29:59.283Z,8.13
2019-05-17T17:32:25.625Z,7.67
2019-05-17T17:34:51.878Z,8.35
2019-05-17T17:37:18.127Z,8.23
2019-05-17T17:39:44.521Z,9.35
2019-05-17T17:42:10.761Z,9.30
2019-05-17T17:44:37.105Z,10.15
2019-05-17T17:47:03.545Z,9.03
2019-05-17T17:49:29.804Z,8.70
2019-05-17T17:51:56.169Z,8.23
2019-05-17T17:54:22.539Z,8.95
2019-05-17T17:56:48.895Z,7.58
2019-05-17T17:59:15.323Z,9.70
2019-05-17T18:01:41.599Z,8.93
2019-05-17T18:04:08.012Z,9.38
2019-05-17T18:06:34.832Z,9.33
2019-05-17T18:09:01.112Z,10.23
2019-05-17T18:11:27.406Z,8.08
2019-05-17T18:13:53.660Z,7.78
2019-05-17T18:16:20.060Z,8.50
2019-05-17T18:18:46.326Z,8.45
2019-05-17T18:21:12.562Z,8.65
2019-05-17T18:23:38.935Z,9.75
2019-05-17T18:26:05.321Z,13.60
2019-05-17T18:28:31.609Z,13.95
2019-05-17T18:30:57.857Z,10.38
2019-05-17T18:33:24.349Z,10.08
2019-05-17T18:35:50.689Z,11.33
2019-05-17T18:38:19.644Z,12.13
2019-05-17T18:40:46.013Z,12.43
2019-05-17T18:43:12.289Z,13.28
2019-05-17T18:45:38.674Z,13.38
2019-05-17T18:48:05.336Z,13.35
2019-05-17T18:50:31.790Z,14.23
2019-05-17T18:52:58.310Z,11.57
2019-05-17T18:55:24.748Z,11.88
2019-05-17T18:57:51.242Z,12.00
2019-05-17T19:00:18.080Z,11.68
2019-05-17T19:02:45.038Z,11.03
2019-05-17T19:05:11.893Z,11.85
2019-05-17T19:07:38.370Z,12.20
2019-05-17T19:10:08.075Z,12.78
2019-05-17T19:12:34.483Z,11.80
2019-05-17T19:15:00.884Z,12.60
2019-05-17T19:17:27.132Z,11.60
2019-05-17T19:19:53.399Z,12.90
2019-05-17T19:22:19.696Z,11.18
2019-05-17T19:24:46.239Z,10.70
2019-05-17T19:27:12.437Z,15.70
2019-05-17T19:29:38.805Z,13.68
2019-05-17T19:32:05.041Z,14.83
2019-05-17T19:34:31.308Z,16.02
2019-05-17T19:36:57.692Z,11.78
2019-05-17T19:39:23.948Z,12.75
2019-05-17T19:41:50.314Z,11.53
2019-05-17T19:44:16.604Z,12.58
2019-05-17T19:46:42.850Z,10.90
2019-05-17T19:49:09.204Z,11.05
2019-05-17T19:51:35.586Z,10.48
2019-05-17T19:54:01.957Z,12.10
2019-05-17T19:56:28.324Z,12.25
2019-05-17T19:58:54.653Z,13.28
2019-05-17T20:01:21.302Z,13.50
2019-05-17T20:03:47.575Z,11.12
2019-05-17T20:06:14.079Z,11.83
2019-05-17T20:08:40.335Z,14.28
2019-05-17T20:11:06.794Z,13.20
2019-05-17T20:13:33.181Z,12.82
2019-05-17T20:15:59.551Z,13.10
2019-05-17T20:18:25.935Z,12.75
2019-05-17T20:20:52.205Z,13.00
2019-05-17T20:23:18.511Z,13.00
2019-05-17T20:25:45.222Z,15.20
2019-05-17T20:28:11.512Z,13.93
2019-05-17T20:30:38.009Z,13.50
2019-05-17T20:33:04.566Z,12.23
2019-05-17T20:35:30.968Z,14.15
2019-05-17T20:37:57.274Z,13.88
2019-05-17T20:40:23.635Z,14.38
2019-05-17T20:42:50.539Z,13.88
2019-05-17T20:45:30.568Z,13.00
2019-05-17T20:47:45.132Z,13.75
2019-05-17T20:50:12.698Z,14.58
2019-05-17T20:52:38.980Z,13.18
2019-05-17T20:55:06.381Z,13.25
2019-05-17T20:57:32.936Z,14.93
2019-05-17T20:59:59.154Z,14.10
2019-05-17T21:02:25.642Z,13.90
2019-05-17T21:05:13.908Z,14.15
2019-05-17T21:07:40.397Z,15.15
2019-05-17T21:10:07.177Z,14.05
2019-05-17T21:12:33.423Z,14.18
2019-05-17T21:14:59.803Z,16.02
2019-05-17T21:17:26.040Z,15.28
2019-05-17T21:19:52.292Z,16.48
2019-05-17T21:22:18.637Z,17.87
2019-05-17T21:24:45.087Z,18.32
2019-05-17T21:27:11.433Z,16.87
2019-05-17T21:29:37.773Z,16.12
2019-05-17T21:32:04.018Z,20.00
2019-05-17T21:34:30.283Z,17.50
2019-05-17T21:36:56.549Z,19.80
2019-05-17T21:39:22.915Z,19.62
2019-05-17T21:41:49.439Z,20.10
2019-05-17T21:44:15.705Z,21.55
2019-05-17T21:46:42.214Z,21.70
2019-05-17T21:49:08.689Z,18.48
2019-05-17T21:51:34.987Z,19.57
2019-05-17T21:54:01.234Z,21.52
2019-05-17T21:56:27.651Z,20.68
2019-05-17T21:58:53.929Z,21.12
2019-05-17T22:01:23.066Z,23.20
2019-05-17T22:03:49.556Z,20.02
2019-05-17T22:06:15.993Z,23.57
2019-05-17T22:08:42.329Z,21.33
2019-05-17T22:11:08.699Z,22.50
2019-05-17T22:13:35.061Z,24.10
2019-05-17T22:16:01.442Z,21.60
2019-05-17T22:18:27.841Z,21.27
2019-05-17T22:20:54.146Z,21.90
2019-05-17T22:23:20.432Z,21.42
2019-05-17T22:25:46.809Z,25.23
2019-05-17T22:28:13.418Z,23.02
2019-05-17T22:30:39.637Z,22.93
2019-05-17T22:33:05.884Z,21.33
2019-05-17T22:35:34.497Z,24.15
2019-05-17T22:38:00.760Z,22.77
2019-05-17T22:40:27.161Z,21.33
2019-05-17T22:42:53.448Z,24.07
2019-05-17T22:45:19.689Z,22.00
2019-05-17T22:47:45.940Z,23.57
2019-05-17T22:50:12.780Z,22.13
2019-05-17T22:52:39.048Z,23.32
2019-05-17T22:55:05.807Z,21.95
2019-05-17T22:57:32.064Z,23.47
2019-05-17T22:59:58.656Z,22.07
2019-05-17T23:02:25.052Z,23.70
2019-05-17T23:04:51.405Z,23.02
2019-05-17T23:07:17.780Z,24.25
2019-05-17T23:09:44.079Z,22.58
2019-05-17T23:12:10.400Z,23.07
2019-05-17T23:14:36.666Z,23.87
2019-05-17T23:17:02.958Z,24.92
2019-05-17T23:19:29.228Z,24.12
2019-05-17T23:21:55.490Z,21.73
2019-05-17T23:24:21.769Z,24.30
2019-05-17T23:26:48.075Z,23.35
2019-05-17T23:29:14.265Z,25.85
2019-05-17T23:31:40.572Z,24.35
2019-05-17T23:34:06.807Z,20.17
2019-05-17T23:36:33.164Z,23.50
2019-05-17T23:38:59.550Z,25.00
2019-05-17T23:41:25.761Z,23.22
2019-05-17T23:43:52.106Z,27.35
2019-05-17T23:46:18.593Z,23.32
2019-05-17T23:48:45.097Z,25.80
2019-05-17T23:51:11.333Z,23.30
2019-05-17T23:53:37.621Z,27.62
2019-05-17T23:56:03.953Z,26.95
2019-05-17T23:58:30.265Z,25.27
